createdAt,value
2023-03-17T00:05:38.858Z,41.45
2023-03-17T00:12:41.212Z,41.50
2023-03-17T00:19:43.233Z,41.61
2023-03-17T00:26:44.768Z,41.59
2023-03-17T00:33:46.617Z,41.83
2023-03-17T00:40:48.976Z,41.65
2023-03-17T00:47:51.486Z,42.05
2023-03-17T00:54:53.136Z,42.38
2023-03-17T01:01:56.412Z,42.75
2023-03-17T01:08:58.040Z,42.67
2023-03-17T01:15:59.715Z,43.20
2023-03-17T01:23:02.262Z,43.20
2023-03-17T01:30:05.226Z,44.40
2023-03-17T01:37:06.900Z,44.21
2023-03-17T01:44:16.890Z,44.20
2023-03-17T01:51:25.187Z,45.11
2023-03-17T01:58:26.868Z,44.82
2023-03-17T02:05:30.987Z,45.16
2023-03-17T02:12:32.708Z,45.33
2023-03-17T02:19:35.190Z,45.45
2023-03-17T02:26:36.982Z,45.61
2023-03-17T02:33:38.869Z,45.09
2023-03-17T02:40:40.614Z,45.30
2023-03-17T02:47:42.610Z,45.92
2023-03-17T02:54:44.192Z,45.53
2023-03-17T03:01:48.396Z,45.50
2023-03-17T03:08:50.882Z,45.21
2023-03-17T03:15:52.593Z,45.67
2023-03-17T03:22:54.240Z,45.13
2023-03-17T03:29:55.844Z,45.22
2023-03-17T03:36:57.497Z,44.67
2023-03-17T03:43:59.176Z,44.91
2023-03-17T03:51:01.840Z,44.74
2023-03-17T03:58:03.385Z,44.43
2023-03-17T04:05:07.332Z,44.17
2023-03-17T04:12:09.444Z,44.42
2023-03-17T04:19:11.249Z,44.24
2023-03-17T04:26:13.545Z,43.82
2023-03-17T04:33:15.156Z,44.18
2023-03-17T04:40:17.125Z,44.47
2023-03-17T04:47:18.868Z,44.39
2023-03-17T04:54:21.284Z,44.22
2023-03-17T05:01:22.898Z,43.71
2023-03-17T05:08:24.595Z,44.19
2023-03-17T05:15:26.369Z,44.28
2023-03-17T05:22:27.917Z,44.18
2023-03-17T05:29:30.001Z,44.38
2023-03-17T05:36:32.086Z,44.07
2023-03-17T05:43:33.883Z,43.67
2023-03-17T05:50:35.859Z,44.29
2023-03-17T05:57:37.424Z,43.96
2023-03-17T06:04:39.211Z,43.65
2023-03-17T06:11:41.696Z,43.72
2023-03-17T06:18:43.343Z,43.82
2023-03-17T06:25:44.898Z,43.69
2023-03-17T06:32:46.813Z,43.48
2023-03-17T06:39:48.447Z,43.47
2023-03-17T06:46:50.270Z,43.51
2023-03-17T06:53:51.848Z,43.50
2023-03-17T07:00:54.167Z,43.40
2023-03-17T07:07:55.750Z,43.31
2023-03-17T07:14:58.016Z,42.87
2023-03-17T07:21:59.730Z,42.88
2023-03-17T07:29:01.739Z,42.81
2023-03-17T07:36:05.096Z,41.96
2023-03-17T07:43:06.682Z,41.53
2023-03-17T07:50:09.610Z,41.22
2023-03-17T07:57:11.953Z,41.04
2023-03-17T08:04:14.525Z,39.93
2023-03-17T08:11:17.558Z,38.76
2023-03-17T08:18:19.133Z,38.04
2023-03-17T08:25:20.665Z,36.57
2023-03-17T08:32:22.523Z,36.52
2023-03-17T08:39:24.468Z,36.69
2023-03-17T08:46:28.159Z,36.35
2023-03-17T08:53:29.901Z,36.01
2023-03-17T09:00:31.668Z,36.48
2023-03-17T09:07:33.713Z,36.25
2023-03-17T09:14:43.535Z,36.46
2023-03-17T09:21:46.035Z,35.62
2023-03-17T09:28:47.659Z,35.23
2023-03-17T09:35:52.128Z,35.13
2023-03-17T09:43:06.082Z,34.78
2023-03-17T09:50:19.700Z,34.13
2023-03-17T09:57:35.758Z,32.76
2023-03-17T10:04:37.368Z,31.70
2023-03-17T10:11:43.695Z,30.82
2023-03-17T10:18:51.567Z,29.27
2023-03-17T10:25:53.150Z,29.26
2023-03-17T10:32:56.296Z,28.29
2023-03-17T10:39:59.696Z,28.06
2023-03-17T10:47:01.890Z,28.27
2023-03-17T10:54:09.485Z,27.67
2023-03-17T11:01:21.598Z,28.06
2023-03-17T11:08:23.391Z,28.24
2023-03-17T11:15:25.685Z,28.51
2023-03-17T11:22:35.384Z,27.67
2023-03-17T11:30:18.631Z,27.59
2023-03-17T11:37:29.832Z,27.06
2023-03-17T11:44:49.971Z,26.56
2023-03-17T11:52:26.927Z,27.95
2023-03-17T11:59:34.652Z,30.05
2023-03-17T12:06:43.546Z,28.28
2023-03-17T12:13:49.946Z,28.32
2023-03-17T12:21:01.757Z,29.61
2023-03-17T12:28:11.112Z,28.59
2023-03-17T12:35:35.261Z,27.28
2023-03-17T12:42:53.530Z,28.33
2023-03-17T12:50:05.735Z,28.29
2023-03-17T12:57:19.003Z,28.17
2023-03-17T13:04:27.392Z,28.37
2023-03-17T13:11:38.405Z,28.18
2023-03-17T13:18:47.876Z,27.80
2023-03-17T13:25:53.372Z,27.90
2023-03-17T13:33:16.385Z,27.70
2023-03-17T13:40:30.138Z,27.98
2023-03-17T13:47:36.547Z,28.27
2023-03-17T13:54:49.122Z,27.92
2023-03-17T14:01:57.664Z,27.79
2023-03-17T14:09:13.132Z,28.06
2023-03-17T14:16:16.089Z,27.96
2023-03-17T14:23:17.898Z,28.29
2023-03-17T14:30:29.559Z,27.58
2023-03-17T14:37:31.180Z,27.86
2023-03-17T14:44:37.180Z,27.79
2023-03-17T14:51:39.492Z,27.88
2023-03-17T14:58:42.634Z,28.10
2023-03-17T15:05:45.430Z,28.33
2023-03-17T15:12:47.089Z,28.74
2023-03-17T15:19:53.549Z,28.81
2023-03-17T15:27:00.231Z,28.91
2023-03-17T15:34:01.824Z,29.22
2023-03-17T15:41:03.405Z,28.92
2023-03-17T15:48:07.047Z,29.07
2023-03-17T15:55:22.489Z,29.31
2023-03-17T16:02:31.803Z,29.25
2023-03-17T16:09:35.345Z,29.42
2023-03-17T16:16:42.386Z,29.83
2023-03-17T16:23:43.974Z,29.22
2023-03-17T16:30:46.382Z,29.62
2023-03-17T16:37:48.495Z,29.85
2023-03-17T16:44:50.397Z,29.75
2023-03-17T16:51:52.148Z,29.79
2023-03-17T16:58:53.756Z,30.58
2023-03-17T17:05:55.689Z,30.51
2023-03-17T17:12:57.243Z,30.29
2023-03-17T17:19:58.813Z,30.66
2023-03-17T17:27:00.662Z,30.60
2023-03-17T17:34:02.317Z,30.86
2023-03-17T17:41:05.727Z,30.92
2023-03-17T17:48:07.295Z,31.14
2023-03-17T17:55:08.991Z,31.52
2023-03-17T18:02:12.108Z,31.24
2023-03-17T18:09:14.099Z,31.43
2023-03-17T18:16:16.401Z,31.31
2023-03-17T18:23:18.558Z,31.74
2023-03-17T18:30:23.176Z,32.03
2023-03-17T18:37:25.098Z,31.91
2023-03-17T18:44:26.668Z,31.98
2023-03-17T18:51:28.332Z,32.03
2023-03-17T18:58:30.599Z,32.19
2023-03-17T19:05:36.157Z,32.58
2023-03-17T19:12:38.065Z,33.13
2023-03-17T19:19:41.239Z,34.04
2023-03-17T19:26:42.825Z,34.50
2023-03-17T19:33:44.357Z,34.66
2023-03-17T19:40:46.037Z,35.01
2023-03-17T19:47:47.627Z,34.51
2023-03-17T19:54:49.322Z,34.45
2023-03-17T20:01:51.116Z,34.89
2023-03-17T20:08:52.738Z,35.56
2023-03-17T20:15:54.420Z,35.47
2023-03-17T20:22:56.198Z,35.40
2023-03-17T20:29:59.003Z,36.19
2023-03-17T20:37:02.080Z,35.94
2023-03-17T20:44:03.699Z,36.10
2023-03-17T20:51:06.282Z,36.12
2023-03-17T20:58:10.118Z,36.87
2023-03-17T21:05:15.339Z,36.84
2023-03-17T21:12:19.995Z,37.28
2023-03-17T21:19:24.356Z,36.99
2023-03-17T21:26:26.006Z,37.50
2023-03-17T21:33:27.691Z,37.95
2023-03-17T21:40:31.245Z,37.85
2023-03-17T21:47:33.103Z,38.18
2023-03-17T21:54:35.045Z,37.90
2023-03-17T22:01:40.382Z,38.55
2023-03-17T22:08:42.140Z,38.34
2023-03-17T22:15:44.699Z,38.60
2023-03-17T22:22:46.356Z,38.77
2023-03-17T22:29:48.177Z,39.03
2023-03-17T22:36:49.804Z,38.48
2023-03-17T22:43:51.517Z,38.98
2023-03-17T22:50:53.237Z,38.98
2023-03-17T22:57:54.875Z,38.97
2023-03-17T23:04:56.574Z,38.84
2023-03-17T23:11:58.871Z,38.99
2023-03-17T23:19:00.874Z,38.93
2023-03-17T23:26:03.074Z,39.38
2023-03-17T23:33:04.845Z,39.12
2023-03-17T23:40:07.630Z,39.57
2023-03-17T23:47:09.792Z,38.88
2023-03-17T23:54:11.433Z,39.52
